WetterOnline ( https://www.wetteronline.de )

Wetter aktuell Weilen

Aktuelles Wetter: Messstetten (900m)

6-stündlich | Neueste Meldungen
Ortszeit Temperatur Wetter
Di, 11.08. 8:00 19.1° C wolkenlos
Di, 11.08. 2:00 15.6° C wolkenlos
Mo, 10.08. 20:00 25.3° C wolkig
Mo, 10.08. 14:00 26.8° C fast wolkenlos
Mo, 10.08. 8:00 19.8° C wolkenlos
Mo, 10.08. 2:00 12.7° C wolkenlos
So, 09.08. 20:00 24.6° C wolkenlos
So, 09.08. 14:00 25.9° C wolkenlos
Ortszeit Temperatur Wetter
Di, 11.08. 12:30 27.5° C wolkig
Di, 11.08. 12:20 27.5° C wolkig
Di, 11.08. 12:10 27.7° C bewölkt
Di, 11.08. 12:00 26.7° C wolkig
Di, 11.08. 11:50 26.7° C wolkig
Di, 11.08. 11:40 26.3° C bedeckt
Di, 11.08. 11:30 26.3° C wolkig
Di, 11.08. 11:00 26.3° C fast wolkenlos
Di, 11.08. 10:30 25.3° C wolkenlos
Di, 11.08. 10:00 24.6° C wolkenlos
Di, 11.08. 9:30 22.7° C wolkenlos
Ortszeit Relative Feuchte Sichtweite
Di, 11.08. 8:00 74% 40 km
Di, 11.08. 2:00 86% 30 km
Mo, 10.08. 20:00 44% 45 km
Mo, 10.08. 14:00 34% 50 km
Mo, 10.08. 8:00 62% 45 km
Mo, 10.08. 2:00 83% 30 km
So, 09.08. 20:00 45% 50 km
So, 09.08. 14:00 37% >70 km
Ortszeit Relative Feuchte Sichtweite
Di, 11.08. 12:30 40% 45 km
Di, 11.08. 12:20 40% -
Di, 11.08. 12:10 38% -
Di, 11.08. 12:00 39% 45 km
Di, 11.08. 11:50 39% -
Di, 11.08. 11:40 41% -
Di, 11.08. 11:30 43% 45 km
Di, 11.08. 11:00 44% 65 km
Di, 11.08. 10:30 47% >70 km
Di, 11.08. 10:00 50% 55 km
Di, 11.08. 9:30 60% 50 km
Ortszeit Niederschlagsmenge Niederschlagsart
Di, 11.08. 8:00 0.0 l/m2 in 12 Std. -
Di, 11.08. 2:00 0.0 l/m2 in 6 Std. -
Mo, 10.08. 20:00 0.0 l/m2 in 12 Std. -
Mo, 10.08. 14:00 0.0 l/m2 in 6 Std. -
Mo, 10.08. 8:00 0.0 l/m2 in 12 Std. -
Mo, 10.08. 2:00 0.0 l/m2 in 6 Std. -
So, 09.08. 20:00 0.0 l/m2 in 12 Std. -
So, 09.08. 14:00 0.0 l/m2 in 6 Std. -
Ortszeit Niederschlagsmenge Niederschlagsart
Di, 11.08. 12:30 0.0 l/m2 in 1 Std. -
Di, 11.08. 12:20 keine Meldung -
Di, 11.08. 12:10 keine Meldung -
Di, 11.08. 12:00 0.0 l/m2 in 1 Std. -
Di, 11.08. 11:50 keine Meldung -
Di, 11.08. 11:40 keine Meldung -
Di, 11.08. 11:30 0.0 l/m2 in 1 Std. -
Di, 11.08. 11:00 0.0 l/m2 in 1 Std. -
Di, 11.08. 10:30 0.0 l/m2 in 1 Std. -
Di, 11.08. 10:00 0.0 l/m2 in 1 Std. -
Di, 11.08. 9:30 0.0 l/m2 in 1 Std. -
Ortszeit Stärke Spitze Richtung
km/h Bft. km/h Grad Sektor
Di, 11.08. 8:00 2 1 7 110° O
Di, 11.08. 2:00 2 1 9 230° SW
Mo, 10.08. 20:00 6 1 24 130° SO
Mo, 10.08. 14:00 7 2 29 70° O
Mo, 10.08. 8:00 7 2 11 90° O
Mo, 10.08. 2:00 0 0 14 - -
So, 09.08. 20:00 11 2 32 90° O
So, 09.08. 14:00 20 4 33 90° O
Ortszeit Stärke Spitze Richtung
km/h Bft. km/h Grad Sektor
Di, 11.08. 12:30 6 1 13 140° SO
Di, 11.08. 12:20 6 1 - 140° SO
Di, 11.08. 12:10 4 1 - 170° S
Di, 11.08. 12:00 6 1 11 280° W
Di, 11.08. 11:50 6 1 - 280° W
Di, 11.08. 11:40 6 1 - 200° S
Di, 11.08. 11:30 4 1 11 140° SO
Di, 11.08. 11:00 4 1 11 100° O
Di, 11.08. 10:30 4 1 7 290° W
Di, 11.08. 10:00 2 1 9 190° S
Di, 11.08. 9:30 4 1 11 200° S
Ortszeit Untergrenze Bedeckung Gattung
total tief tief mittel hoch
Di, 11.08. 8:00 - 0/8 0/8 - - -
Di, 11.08. 2:00 - 0/8 0/8 - - -
Mo, 10.08. 20:00 1800 m 7/8 4/8 - - -
Mo, 10.08. 14:00 10500 m 1/8 0/8 - - -
Mo, 10.08. 8:00 - 0/8 0/8 - - -
Mo, 10.08. 2:00 - 0/8 0/8 - - -
So, 09.08. 20:00 - 0/8 0/8 - - -
So, 09.08. 14:00 - 0/8 0/8 - - -
Ortszeit Bedeckungsgrad in Achtel und Wolkenuntergrenze
Di, 11.08. 12:30 2(1500m) 5(4200m) 8(4800m)
Di, 11.08. 12:20 2(1500m) 5(4200m) 8(4800m)
Di, 11.08. 12:10 1(4200m) 7(4800m)
Di, 11.08. 12:00 6(4800m)
Di, 11.08. 11:50 6(4800m)
Di, 11.08. 11:40 8(4800m)
Di, 11.08. 11:30 5(4800m)
Di, 11.08. 11:00 2(10500m)
Di, 11.08. 10:30 keine Wolken
Di, 11.08. 10:00 keine Wolken
Di, 11.08. 9:30 keine Wolken
Ortszeit Stationsdruck (hPa) Tendenz (hPa in 3 Std.)
Di, 11.08. 8:00 916 + 0,4
Di, 11.08. 2:00 915 + 0,2
Mo, 10.08. 20:00 914 + 0,4
Mo, 10.08. 14:00 915 - 0,1
Mo, 10.08. 8:00 915 - 0,1
Mo, 10.08. 2:00 916 - 0,7
So, 09.08. 20:00 916 - 0,8
So, 09.08. 14:00 918 - 0,9
Ortszeit Stationsdruck (hPa) Tendenz (hPa in 3 Std.)
Di, 11.08. 12:30 916 + 0,2
Di, 11.08. 12:20 916 keine Meldung
Di, 11.08. 12:10 916 keine Meldung
Di, 11.08. 12:00 916 + 0,3
Di, 11.08. 11:50 916 keine Meldung
Di, 11.08. 11:40 916 keine Meldung
Di, 11.08. 11:30 916 + 0,4
Di, 11.08. 11:00 916 + 0,5
Di, 11.08. 10:30 916 + 0,6
Di, 11.08. 10:00 916 + 0,6
Di, 11.08. 9:30 916 + 0,6
Ortszeit Schneehöhe (cm)
Di, 11.08. 8:00 -
Di, 11.08. 2:00 -
Mo, 10.08. 20:00 -
Mo, 10.08. 14:00 -
Mo, 10.08. 8:00 -
Mo, 10.08. 2:00 -
So, 09.08. 20:00 -
So, 09.08. 14:00 -
Ortszeit Schneehöhe (cm)
Di, 11.08. 12:30 -
Di, 11.08. 12:20 -
Di, 11.08. 12:10 -
Di, 11.08. 12:00 -
Di, 11.08. 11:50 -
Di, 11.08. 11:40 -
Di, 11.08. 11:30 -
Di, 11.08. 11:00 -
Di, 11.08. 10:30 -
Di, 11.08. 10:00 -
Di, 11.08. 9:30 -
Link zu dieser Seite / Seite empfehlen

Das Wetter in ...